createdAt,value
2022-08-30T00:01:00.075Z,71.18
2022-08-30T00:03:27.715Z,71.27
2022-08-30T00:05:56.302Z,70.59
2022-08-30T00:08:22.978Z,70.96
2022-08-30T00:10:51.130Z,71.40
2022-08-30T00:13:18.957Z,72.20
2022-08-30T00:15:45.967Z,72.92
2022-08-30T00:18:12.719Z,72.57
2022-08-30T00:20:39.167Z,73.19
2022-08-30T00:23:05.926Z,72.81
2022-08-30T00:25:32.465Z,72.67
2022-08-30T00:27:58.965Z,73.12
2022-08-30T00:30:25.745Z,72.79
2022-08-30T00:32:52.352Z,72.71
2022-08-30T00:35:20.449Z,72.81
2022-08-30T00:37:48.188Z,73.17
2022-08-30T00:40:17.749Z,73.43
2022-08-30T00:42:44.545Z,74.09
2022-08-30T00:45:22.760Z,73.81
2022-08-30T00:47:49.157Z,73.91
2022-08-30T00:50:20.193Z,74.28
2022-08-30T00:52:48.893Z,75.57
2022-08-30T00:55:18.006Z,75.61
2022-08-30T00:57:46.664Z,75.92
2022-08-30T01:00:16.089Z,76.24
2022-08-30T01:02:43.207Z,77.28
2022-08-30T01:05:16.103Z,78.27
2022-08-30T01:07:43.336Z,79.14
2022-08-30T01:10:11.752Z,79.13
2022-08-30T01:12:39.684Z,78.93
2022-08-30T01:15:08.021Z,80.60
2022-08-30T01:17:34.619Z,80.52
2022-08-30T01:20:20.557Z,80.03
2022-08-30T01:22:49.954Z,80.91
2022-08-30T01:25:24.826Z,81.06
2022-08-30T01:27:58.954Z,80.19
2022-08-30T01:30:25.357Z,81.45
2022-08-30T01:32:59.004Z,82.13
2022-08-30T01:35:25.992Z,82.86
2022-08-30T01:37:52.463Z,83.03
2022-08-30T01:40:19.794Z,83.31
2022-08-30T01:42:46.278Z,83.53
2022-08-30T01:45:13.956Z,83.06
2022-08-30T01:47:40.533Z,82.58
2022-08-30T01:50:08.675Z,82.72
2022-08-30T01:52:35.247Z,84.08
2022-08-30T01:55:02.101Z,83.66
2022-08-30T01:57:28.629Z,83.49
2022-08-30T01:59:55.438Z,83.72
2022-08-30T02:02:25.859Z,83.12
2022-08-30T02:04:54.006Z,84.25
2022-08-30T02:07:21.985Z,84.20
2022-08-30T02:09:48.465Z,84.07
2022-08-30T02:12:15.267Z,84.31
2022-08-30T02:14:41.673Z,84.38
2022-08-30T02:17:10.761Z,83.89
2022-08-30T02:19:37.282Z,84.93
2022-08-30T02:22:04.302Z,84.95
2022-08-30T02:24:30.796Z,85.51
2022-08-30T02:26:57.454Z,85.68
2022-08-30T02:29:24.833Z,86.11
2022-08-30T02:31:51.377Z,86.75
2022-08-30T02:34:18.797Z,86.42
2022-08-30T02:36:45.952Z,86.51
2022-08-30T02:39:13.352Z,86.40
2022-08-30T02:41:41.836Z,87.03
2022-08-30T02:44:09.900Z,86.35
2022-08-30T02:46:36.873Z,86.51
2022-08-30T02:49:29.851Z,86.25
2022-08-30T02:51:50.928Z,87.24
2022-08-30T02:54:20.004Z,87.54
2022-08-30T02:56:47.865Z,87.85
2022-08-30T02:59:16.316Z,88.25
2022-08-30T03:01:43.083Z,88.29
2022-08-30T03:04:09.968Z,88.97
2022-08-30T03:06:37.016Z,89.41
2022-08-30T03:09:04.157Z,89.48
2022-08-30T03:11:30.601Z,89.11
2022-08-30T03:13:56.965Z,89.50
2022-08-30T03:16:23.469Z,89.35
2022-08-30T03:18:49.937Z,88.96
2022-08-30T03:21:17.058Z,89.41
2022-08-30T03:23:44.115Z,89.44
2022-08-30T03:26:13.486Z,89.05
2022-08-30T03:28:40.973Z,89.24
2022-08-30T03:31:08.787Z,89.43
2022-08-30T03:33:36.377Z,89.37
2022-08-30T03:36:02.905Z,89.75
2022-08-30T03:38:29.342Z,89.47
2022-08-30T03:40:55.699Z,89.75
2022-08-30T03:43:23.441Z,90.16
2022-08-30T03:45:50.426Z,90.17
2022-08-30T03:48:16.769Z,90.67
2022-08-30T03:50:43.225Z,90.83
2022-08-30T03:53:09.995Z,91.86
2022-08-30T03:55:36.469Z,92.00
2022-08-30T03:58:03.006Z,92.31
2022-08-30T04:00:30.502Z,93.36
2022-08-30T04:02:56.916Z,93.89
2022-08-30T04:05:23.345Z,93.92
2022-08-30T04:07:49.883Z,94.06
2022-08-30T04:10:16.546Z,94.78
2022-08-30T04:12:47.420Z,95.61
2022-08-30T04:15:17.862Z,96.36
2022-08-30T04:17:44.278Z,96.22
2022-08-30T04:20:11.351Z,96.61
2022-08-30T04:22:38.035Z,96.75
2022-08-30T04:25:05.584Z,97.05
2022-08-30T04:27:32.366Z,97.23
2022-08-30T04:30:00.137Z,96.95
2022-08-30T04:32:26.605Z,97.06
2022-08-30T04:34:57.721Z,96.90
2022-08-30T04:37:24.203Z,96.55
2022-08-30T04:39:55.058Z,95.84
2022-08-30T04:42:21.503Z,96.34
2022-08-30T04:44:47.958Z,96.55
2022-08-30T04:47:14.425Z,97.16
2022-08-30T04:49:40.772Z,97.52
2022-08-30T04:52:08.817Z,98.35
2022-08-30T04:54:37.083Z,98.52
2022-08-30T04:57:04.955Z,98.44
2022-08-30T04:59:31.397Z,98.65
2022-08-30T05:01:58.006Z,99.46
2022-08-30T05:04:24.481Z,99.61
2022-08-30T05:06:51.060Z,99.85
2022-08-30T05:09:17.614Z,100.00
2022-08-30T05:11:44.901Z,100.00
2022-08-30T05:14:11.568Z,100.00
2022-08-30T05:16:38.120Z,99.92
2022-08-30T05:19:05.284Z,99.42
2022-08-30T05:21:31.773Z,98.81
2022-08-30T05:24:00.536Z,98.01
2022-08-30T05:26:32.527Z,96.77
2022-08-30T05:28:59.260Z,96.16
2022-08-30T05:31:28.979Z,95.62
2022-08-30T05:33:56.297Z,94.62
2022-08-30T05:36:25.810Z,94.56
2022-08-30T05:38:53.604Z,94.01
2022-08-30T05:41:21.853Z,93.03
2022-08-30T05:43:48.690Z,92.79
2022-08-30T05:46:19.277Z,92.27
2022-08-30T05:48:46.893Z,90.44
2022-08-30T05:51:19.592Z,90.01
2022-08-30T05:53:46.606Z,89.66
2022-08-30T05:56:15.946Z,88.61
2022-08-30T05:58:43.432Z,88.26
2022-08-30T06:01:26.399Z,88.31
2022-08-30T06:03:53.483Z,88.16
2022-08-30T06:06:20.044Z,88.02
2022-08-30T06:08:48.451Z,86.86
2022-08-30T06:11:17.656Z,85.93
2022-08-30T06:13:44.113Z,85.58
2022-08-30T06:16:12.819Z,85.23
2022-08-30T06:18:40.136Z,83.84
2022-08-30T06:21:06.750Z,81.98
2022-08-30T06:23:33.241Z,81.59
2022-08-30T06:26:07.273Z,81.43
2022-08-30T06:28:34.512Z,82.15
2022-08-30T06:31:00.901Z,81.28
2022-08-30T06:33:27.411Z,80.45
2022-08-30T06:35:59.227Z,79.96
2022-08-30T06:38:26.826Z,78.76
2022-08-30T06:40:53.182Z,77.27
2022-08-30T06:43:20.788Z,76.26
2022-08-30T06:45:47.262Z,76.86
2022-08-30T06:48:13.777Z,76.21
2022-08-30T06:50:41.970Z,75.22
2022-08-30T06:53:09.300Z,74.54
2022-08-30T06:55:37.277Z,74.37
2022-08-30T06:58:04.733Z,73.32
2022-08-30T07:00:31.248Z,73.92
2022-08-30T07:02:58.082Z,73.02
2022-08-30T07:05:24.570Z,72.26
2022-08-30T07:07:53.295Z,71.58
2022-08-30T07:10:21.485Z,71.29
2022-08-30T07:12:48.698Z,70.06
2022-08-30T07:15:15.840Z,68.74
2022-08-30T07:18:00.632Z,68.40
2022-08-30T07:20:27.124Z,68.33
2022-08-30T07:22:53.529Z,67.91
2022-08-30T07:25:19.985Z,67.61
2022-08-30T07:27:46.682Z,68.50
2022-08-30T07:30:14.166Z,68.42
2022-08-30T07:32:40.796Z,67.80
2022-08-30T07:35:07.458Z,67.37
2022-08-30T07:37:33.842Z,67.36
2022-08-30T07:40:00.418Z,65.07
2022-08-30T07:42:26.875Z,63.45
2022-08-30T07:44:56.588Z,63.90
2022-08-30T07:47:23.518Z,64.02
2022-08-30T07:49:50.001Z,62.28
2022-08-30T07:52:16.828Z,62.60
2022-08-30T07:54:43.217Z,61.48
2022-08-30T07:57:09.697Z,61.41
2022-08-30T07:59:36.380Z,62.36
2022-08-30T08:02:03.456Z,61.95
2022-08-30T08:04:29.924Z,61.40
2022-08-30T08:06:56.385Z,60.84
2022-08-30T08:09:22.764Z,58.95
2022-08-30T08:11:49.309Z,58.76
2022-08-30T08:16:47.026Z,57.73
2022-08-30T08:19:13.709Z,56.55
2022-08-30T08:21:40.210Z,56.97
2022-08-30T08:24:07.656Z,56.38
2022-08-30T08:26:38.569Z,54.86
2022-08-30T08:29:09.857Z,55.23
2022-08-30T08:31:36.943Z,55.05
2022-08-30T08:34:05.791Z,54.36
2022-08-30T08:36:33.244Z,54.50
2022-08-30T08:39:00.338Z,53.60
2022-08-30T08:41:35.954Z,52.56
2022-08-30T08:44:18.708Z,52.21
2022-08-30T08:47:08.188Z,51.97
2022-08-30T08:49:36.069Z,53.02
2022-08-30T08:52:23.038Z,52.46
2022-08-30T08:54:59.025Z,51.16
2022-08-30T08:57:29.455Z,49.55
2022-08-30T08:59:56.065Z,49.63
2022-08-30T09:02:27.356Z,48.79
2022-08-30T09:05:01.090Z,50.03
2022-08-30T09:07:32.191Z,49.62
2022-08-30T09:10:00.552Z,49.99
2022-08-30T09:12:27.969Z,48.68
2022-08-30T09:15:02.605Z,49.14
2022-08-30T09:17:29.704Z,49.24
2022-08-30T09:19:56.022Z,48.84
2022-08-30T09:22:38.622Z,49.39
2022-08-30T09:25:08.822Z,47.31
2022-08-30T09:27:46.805Z,47.07
2022-08-30T09:30:21.082Z,45.64
2022-08-30T09:32:56.630Z,45.80
2022-08-30T09:35:25.318Z,46.54
2022-08-30T09:37:56.438Z,46.90
2022-08-30T09:40:28.306Z,47.38
2022-08-30T09:43:07.907Z,46.72
2022-08-30T09:45:39.066Z,48.24
2022-08-30T09:48:44.025Z,47.78
2022-08-30T09:54:26.454Z,48.72
2022-08-30T09:57:12.862Z,49.16
2022-08-30T10:00:02.117Z,49.50
2022-08-30T10:02:56.595Z,48.92
2022-08-30T10:05:32.501Z,47.82
2022-08-30T10:08:05.136Z,48.54
2022-08-30T10:10:59.205Z,48.69
2022-08-30T10:13:53.833Z,48.60
2022-08-30T10:16:31.501Z,49.19
2022-08-30T10:19:00.949Z,49.38
2022-08-30T10:22:24.364Z,48.36
2022-08-30T10:24:58.212Z,47.18
2022-08-30T10:27:52.985Z,46.70
2022-08-30T10:30:20.225Z,46.84
2022-08-30T10:33:02.088Z,47.13
2022-08-30T10:35:38.943Z,46.45
2022-08-30T10:38:11.929Z,46.43
2022-08-30T10:41:00.897Z,46.34
2022-08-30T10:43:38.951Z,45.91
2022-08-30T10:46:24.677Z,44.90
2022-08-30T10:48:52.793Z,45.69
2022-08-30T10:51:29.724Z,44.86
2022-08-30T10:54:01.721Z,44.40
2022-08-30T10:56:29.498Z,45.51
2022-08-30T10:58:58.335Z,45.45
2022-08-30T11:01:47.160Z,45.22
2022-08-30T11:04:17.662Z,46.17
2022-08-30T11:06:47.126Z,45.41
2022-08-30T11:09:37.935Z,46.25
2022-08-30T11:12:29.069Z,45.76
2022-08-30T11:14:55.616Z,46.20
2022-08-30T11:17:38.238Z,47.18
2022-08-30T11:20:05.405Z,46.07
2022-08-30T11:22:39.294Z,45.91
2022-08-30T11:25:16.864Z,44.67
2022-08-30T11:27:56.665Z,45.79
2022-08-30T11:30:27.365Z,45.23
2022-08-30T11:32:59.400Z,44.87
2022-08-30T11:35:36.699Z,44.77
2022-08-30T11:38:17.004Z,44.20
2022-08-30T11:40:56.102Z,44.12
2022-08-30T11:43:36.795Z,44.77
2022-08-30T11:46:28.779Z,45.03
2022-08-30T11:49:13.891Z,45.23
2022-08-30T11:55:06.988Z,44.96
2022-08-30T11:57:44.227Z,45.12
2022-08-30T12:00:30.191Z,44.69
2022-08-30T12:03:04.017Z,45.55
2022-08-30T12:05:38.433Z,46.94
2022-08-30T12:08:34.314Z,46.73
2022-08-30T12:11:35.528Z,46.72
2022-08-30T12:14:09.348Z,46.28
2022-08-30T12:17:04.601Z,45.60
2022-08-30T12:19:33.011Z,45.69
2022-08-30T12:22:04.194Z,44.90
2022-08-30T12:24:40.007Z,44.16
2022-08-30T12:27:39.141Z,46.49
2022-08-30T12:30:10.003Z,46.26
2022-08-30T12:32:47.301Z,45.49
2022-08-30T12:35:25.612Z,45.23
2022-08-30T12:38:11.911Z,45.95
2022-08-30T12:40:52.144Z,44.94
2022-08-30T12:43:38.673Z,45.31
2022-08-30T12:46:11.544Z,45.50
2022-08-30T12:48:40.540Z,45.53
2022-08-30T12:51:07.485Z,45.56
2022-08-30T12:53:38.111Z,44.97
2022-08-30T12:56:09.139Z,44.93
2022-08-30T12:58:53.659Z,44.03
2022-08-30T13:01:35.891Z,44.01
2022-08-30T13:04:22.908Z,44.62
2022-08-30T13:06:55.617Z,44.06
2022-08-30T13:09:32.461Z,43.61
2022-08-30T13:12:03.715Z,44.19
2022-08-30T13:14:33.281Z,43.52
2022-08-30T13:17:06.225Z,44.29
2022-08-30T13:19:36.938Z,43.12
2022-08-30T13:22:05.510Z,43.71
2022-08-30T13:24:31.892Z,43.66
2022-08-30T13:27:11.793Z,43.94
2022-08-30T13:29:38.378Z,43.99
2022-08-30T13:32:04.900Z,43.44
2022-08-30T13:34:33.053Z,43.04
2022-08-30T13:36:59.926Z,43.54
2022-08-30T13:39:26.825Z,43.80
2022-08-30T13:41:54.785Z,43.91
2022-08-30T13:44:22.786Z,44.09
2022-08-30T13:46:54.617Z,41.88
2022-08-30T13:52:22.530Z,42.90
2022-08-30T13:54:53.468Z,42.81
2022-08-30T14:00:15.219Z,43.65
2022-08-30T14:02:46.457Z,43.85
2022-08-30T14:05:31.050Z,43.75
2022-08-30T14:08:00.596Z,44.05
2022-08-30T14:10:30.717Z,44.32
2022-08-30T14:13:08.068Z,44.77
2022-08-30T14:15:36.335Z,44.83
2022-08-30T14:18:06.542Z,45.03
2022-08-30T14:20:35.224Z,45.19
2022-08-30T14:23:04.936Z,44.65
2022-08-30T14:25:36.738Z,43.88
2022-08-30T14:28:03.350Z,44.58
2022-08-30T14:30:29.806Z,44.79
2022-08-30T14:32:56.192Z,44.80
2022-08-30T14:35:22.837Z,45.02
2022-08-30T14:37:50.582Z,45.10
2022-08-30T14:40:18.567Z,45.02
2022-08-30T14:42:44.978Z,44.87
2022-08-30T14:45:11.901Z,44.52
2022-08-30T14:47:38.709Z,44.58
2022-08-30T14:50:05.867Z,44.48
2022-08-30T14:52:32.575Z,45.07
2022-08-30T14:55:05.183Z,44.32
2022-08-30T14:57:35.507Z,44.54
2022-08-30T15:00:06.051Z,44.93
2022-08-30T15:02:32.428Z,45.26
2022-08-30T15:04:58.802Z,44.93
2022-08-30T15:07:25.193Z,44.73
2022-08-30T15:09:51.544Z,44.40
2022-08-30T15:12:17.989Z,45.02
2022-08-30T15:14:44.782Z,45.67
2022-08-30T15:17:12.941Z,45.26
2022-08-30T15:19:39.553Z,45.17
2022-08-30T15:22:06.942Z,44.89
2022-08-30T15:24:35.045Z,45.32
2022-08-30T15:27:03.346Z,44.64
2022-08-30T15:29:31.699Z,44.46
2022-08-30T15:31:59.936Z,44.99
2022-08-30T15:34:28.033Z,44.20
2022-08-30T15:36:55.484Z,44.93
2022-08-30T15:39:21.963Z,44.69
2022-08-30T15:41:57.126Z,45.34
2022-08-30T15:44:26.286Z,44.80
2022-08-30T15:46:52.892Z,45.13
2022-08-30T15:49:22.809Z,44.49
2022-08-30T15:51:54.007Z,45.30
2022-08-30T15:54:22.873Z,45.39
2022-08-30T15:56:49.297Z,45.41
2022-08-30T15:59:17.370Z,45.94
2022-08-30T16:01:45.423Z,46.04
2022-08-30T16:04:14.849Z,46.17
2022-08-30T16:06:41.736Z,45.90
2022-08-30T16:09:10.059Z,45.65
2022-08-30T16:11:37.403Z,45.87
2022-08-30T16:14:05.625Z,46.47
2022-08-30T16:16:32.531Z,46.62
2022-08-30T16:18:59.195Z,46.81
2022-08-30T16:21:30.795Z,47.27
2022-08-30T16:23:58.914Z,47.13
2022-08-30T16:26:26.785Z,47.31
2022-08-30T16:28:54.789Z,47.39
2022-08-30T16:31:22.587Z,47.71
2022-08-30T16:33:52.762Z,47.14
2022-08-30T16:36:21.274Z,47.15
2022-08-30T16:38:48.794Z,47.89
2022-08-30T16:41:21.489Z,48.00
2022-08-30T16:43:49.583Z,48.14
2022-08-30T16:46:23.225Z,48.49
2022-08-30T16:48:56.281Z,49.09
2022-08-30T16:51:24.719Z,48.85
2022-08-30T16:53:54.888Z,49.43
2022-08-30T16:56:24.380Z,49.40
2022-08-30T16:59:00.449Z,49.55
2022-08-30T17:01:28.871Z,49.95
2022-08-30T17:03:55.611Z,50.36
2022-08-30T17:06:22.057Z,50.82
2022-08-30T17:08:48.492Z,50.72
2022-08-30T17:11:22.340Z,50.48
2022-08-30T17:13:49.303Z,50.81
2022-08-30T17:16:27.258Z,51.03
2022-08-30T17:18:54.270Z,51.42
2022-08-30T17:21:20.651Z,51.24
2022-08-30T17:23:48.546Z,51.62
2022-08-30T17:26:16.329Z,52.39
2022-08-30T17:28:43.573Z,52.02
2022-08-30T17:31:10.940Z,52.06
2022-08-30T17:33:39.726Z,52.19
2022-08-30T17:36:07.580Z,52.31
2022-08-30T17:38:34.646Z,52.62
2022-08-30T17:41:06.606Z,52.97
2022-08-30T17:43:35.226Z,53.48
2022-08-30T17:46:14.427Z,52.86
2022-08-30T17:48:43.080Z,53.31
2022-08-30T17:51:09.589Z,53.20
2022-08-30T17:53:36.785Z,53.31
2022-08-30T17:56:04.841Z,53.89
2022-08-30T17:58:31.909Z,54.19
2022-08-30T18:01:11.579Z,53.97
2022-08-30T18:03:39.400Z,54.66
2022-08-30T18:06:06.690Z,54.81
2022-08-30T18:08:34.377Z,54.97
2022-08-30T18:11:01.093Z,54.90
2022-08-30T18:13:27.466Z,55.10
2022-08-30T18:15:53.943Z,55.40
2022-08-30T18:18:21.081Z,55.22
2022-08-30T18:20:47.886Z,55.05
2022-08-30T18:23:14.435Z,54.83
2022-08-30T18:25:42.070Z,55.88
2022-08-30T18:28:08.817Z,55.42
2022-08-30T18:30:41.445Z,55.85
2022-08-30T18:33:08.681Z,55.67
2022-08-30T18:35:36.366Z,55.19
2022-08-30T18:38:03.255Z,55.59
2022-08-30T18:40:29.706Z,55.93
2022-08-30T18:42:56.197Z,56.31
2022-08-30T18:45:23.839Z,56.00
2022-08-30T18:47:50.475Z,55.94
2022-08-30T18:50:17.112Z,56.42
2022-08-30T18:52:45.088Z,56.19
2022-08-30T18:55:11.733Z,56.55
2022-08-30T18:57:38.236Z,56.66
2022-08-30T19:00:05.048Z,56.36
2022-08-30T19:02:31.910Z,56.63
2022-08-30T19:04:59.091Z,56.76
2022-08-30T19:07:28.955Z,56.45
2022-08-30T19:10:00.667Z,56.63
2022-08-30T19:12:28.053Z,56.26
2022-08-30T19:14:56.164Z,56.38
2022-08-30T19:17:22.909Z,56.87
2022-08-30T19:19:52.406Z,57.51
2022-08-30T19:22:21.222Z,57.53
2022-08-30T19:24:49.770Z,57.53
2022-08-30T19:27:17.404Z,57.02
2022-08-30T19:29:44.597Z,57.43
2022-08-30T19:32:11.950Z,57.80
2022-08-30T19:34:39.666Z,57.78
2022-08-30T19:37:06.124Z,57.15
2022-08-30T19:39:32.865Z,57.84
2022-08-30T19:41:59.313Z,58.08
2022-08-30T19:44:26.724Z,58.33
2022-08-30T19:46:53.762Z,58.60
2022-08-30T19:49:22.743Z,58.71
2022-08-30T19:51:49.141Z,58.71
2022-08-30T19:54:15.611Z,58.79
2022-08-30T19:56:43.928Z,59.00
2022-08-30T20:01:56.891Z,59.08
2022-08-30T20:04:23.354Z,59.50
2022-08-30T20:06:50.601Z,59.68
2022-08-30T20:09:17.122Z,60.21
2022-08-30T20:11:43.621Z,60.05
2022-08-30T20:14:13.532Z,59.70
2022-08-30T20:16:40.394Z,60.06
2022-08-30T20:19:09.534Z,60.67
2022-08-30T20:21:37.039Z,60.24
2022-08-30T20:24:04.140Z,60.28
2022-08-30T20:26:33.769Z,60.45
2022-08-30T20:29:01.747Z,60.13
2022-08-30T20:31:28.840Z,60.52
2022-08-30T20:33:55.382Z,60.96
2022-08-30T20:36:21.767Z,60.79
2022-08-30T20:38:48.555Z,60.53
2022-08-30T20:41:16.938Z,59.94
2022-08-30T20:43:44.016Z,60.96
2022-08-30T20:46:16.418Z,60.62
2022-08-30T20:48:43.524Z,60.70
2022-08-30T20:51:15.712Z,60.47
2022-08-30T20:53:42.877Z,60.44
2022-08-30T20:56:18.705Z,60.42
2022-08-30T20:58:45.760Z,60.67
2022-08-30T21:01:13.643Z,60.50
2022-08-30T21:03:41.301Z,60.56
2022-08-30T21:06:08.521Z,60.93
2022-08-30T21:08:35.041Z,60.64
2022-08-30T21:11:01.566Z,60.77
2022-08-30T21:13:28.071Z,60.67
2022-08-30T21:16:00.251Z,60.70
2022-08-30T21:18:29.604Z,60.96
2022-08-30T21:20:56.864Z,60.50
2022-08-30T21:23:23.669Z,60.25
2022-08-30T21:25:50.374Z,60.03
2022-08-30T21:28:17.932Z,60.30
2022-08-30T21:30:44.597Z,60.56
2022-08-30T21:33:11.068Z,60.37
2022-08-30T21:35:56.323Z,60.45
2022-08-30T21:38:22.798Z,60.79
2022-08-30T21:40:49.229Z,60.63
2022-08-30T21:43:16.115Z,60.39
2022-08-30T21:45:44.265Z,61.01
2022-08-30T21:48:12.830Z,60.97
2022-08-30T21:50:40.943Z,60.72
2022-08-30T21:53:07.482Z,60.78
2022-08-30T21:55:33.893Z,60.99
2022-08-30T21:58:00.490Z,60.82
2022-08-30T22:00:26.901Z,60.95
2022-08-30T22:02:53.470Z,61.02
2022-08-30T22:05:20.489Z,60.83
2022-08-30T22:07:46.940Z,60.68
2022-08-30T22:10:15.702Z,60.77
2022-08-30T22:12:42.090Z,61.23
2022-08-30T22:15:09.156Z,60.74
2022-08-30T22:17:35.592Z,60.95
2022-08-30T22:20:02.131Z,60.63
2022-08-30T22:22:28.597Z,60.85
2022-08-30T22:24:54.953Z,61.09
2022-08-30T22:27:21.642Z,61.11
2022-08-30T22:29:48.072Z,61.51
2022-08-30T22:32:14.618Z,61.07
2022-08-30T22:34:40.997Z,61.49
2022-08-30T22:37:07.852Z,61.33
2022-08-30T22:39:34.273Z,61.48
2022-08-30T22:42:00.723Z,61.85
2022-08-30T22:44:27.224Z,61.46
2022-08-30T22:46:53.666Z,61.70
2022-08-30T22:49:20.441Z,61.88
2022-08-30T22:51:46.981Z,61.85
2022-08-30T22:54:13.892Z,61.86
2022-08-30T22:56:40.321Z,61.79
2022-08-30T22:59:07.047Z,61.66
2022-08-30T23:01:37.935Z,61.58
2022-08-30T23:04:06.737Z,61.29
2022-08-30T23:06:33.621Z,61.96
2022-08-30T23:09:00.123Z,62.04
2022-08-30T23:11:26.994Z,62.27
2022-08-30T23:13:54.274Z,62.42
2022-08-30T23:16:21.401Z,62.58
2022-08-30T23:18:47.993Z,62.92
2022-08-30T23:21:18.204Z,63.32
2022-08-30T23:24:03.714Z,63.11
2022-08-30T23:26:48.728Z,63.00
2022-08-30T23:29:34.636Z,62.87
2022-08-30T23:32:20.499Z,62.15
2022-08-30T23:35:05.262Z,62.28
2022-08-30T23:37:52.944Z,61.62
2022-08-30T23:40:39.742Z,61.74
2022-08-30T23:43:25.620Z,62.58
2022-08-30T23:46:10.635Z,63.79
2022-08-30T23:48:59.836Z,65.42
2022-08-30T23:51:44.763Z,66.36
2022-08-30T23:54:29.570Z,67.83
2022-08-30T23:57:14.930Z,68.49
2022-08-30T23:59:59.822Z,69.62
